Terminal Aerodrome Forecast
Issued by NWS

Home | Current Version | Previous Version | Text Only | Print | Product List | Glossary On
Versions: 1 2 3 4 5 6 7 8 9 10 11 12 13 14 15 16 17 18 19 20 21 22 23 24 25 26
000
FTUS46 KEKA 171100
TAFCEC
TAF
KCEC 171130Z 1712/1812 00000KT P6SM BKN050
      TEMPO 1712/1716 VRB03KT 3SM BR OVC003
     FM171600 VRB06KT 4SM BR OVC004
     FM171800 27008KT P6SM BKN050
     FM172100 28006KT P6SM OVC050
      TEMPO 1802/1806 VRB06KT 3SM -DZ BR BKN020
     FM180600 VRB03KT P6SM SCT007 BKN012=

USA.gov is the U.S. government's official web portal to all federal, state and local government web resources and services.